Terminal Aerodrome Forecast
Issued by NWS

Home | Current Version | Previous Version | Text Only | Print | Product List | Glossary On
Versions: 1 2 3 4 5 6 7 8 9 10 11 12 13 14 15 16 17 18
000
FTUS43 KDTX 271720
TAFYIP
TAF
KYIP 271720Z 2718/2818 23016G26KT P6SM SCT060
     FM272300 23010KT P6SM BKN100
     FM280300 VRB04KT P6SM OVC100
     FM281500 13006KT P6SM BKN050 PROB30 2815/2818 4SM -SHRA=

USA.gov is the U.S. government's official web portal to all federal, state and local government web resources and services.